createdAt,value
2023-03-26T00:02:04.573Z,1.70
2023-03-26T00:04:34.412Z,1.30
2023-03-26T00:07:03.183Z,1.50
2023-03-26T00:09:31.333Z,1.60
2023-03-26T00:11:59.559Z,1.80
2023-03-26T00:14:29.279Z,1.50
2023-03-26T00:16:57.371Z,1.90
2023-03-26T00:19:25.639Z,1.70
2023-03-26T00:21:53.750Z,1.80
2023-03-26T00:24:21.773Z,1.50
2023-03-26T00:26:53.616Z,1.40
2023-03-26T00:29:27.927Z,1.60
2023-03-26T00:31:56.256Z,1.60
2023-03-26T00:34:25.036Z,2.10
2023-03-26T00:36:55.967Z,1.50
2023-03-26T00:39:24.177Z,1.50
2023-03-26T00:41:54.781Z,1.30
2023-03-26T00:44:23.397Z,1.80
2023-03-26T00:46:51.591Z,1.50
2023-03-26T00:49:19.563Z,1.40
2023-03-26T00:51:49.128Z,1.60
2023-03-26T00:54:17.496Z,1.70
2023-03-26T00:56:45.648Z,2.00
2023-03-26T00:59:13.803Z,1.60
2023-03-26T01:01:42.337Z,1.70
2023-03-26T01:04:31.232Z,1.50
2023-03-26T01:07:11.875Z,1.20
2023-03-26T01:09:50.377Z,1.60
2023-03-26T01:12:22.374Z,1.30
2023-03-26T01:14:53.731Z,1.30
2023-03-26T01:17:23.845Z,1.20
2023-03-26T01:20:05.719Z,1.70
2023-03-26T01:22:37.869Z,1.50
2023-03-26T01:25:07.325Z,1.40
2023-03-26T01:27:44.568Z,1.30
2023-03-26T01:30:42.644Z,1.40
2023-03-26T01:33:33.983Z,1.40
2023-03-26T01:36:19.977Z,1.70
2023-03-26T01:39:00.600Z,2.00
2023-03-26T01:41:51.307Z,1.70
2023-03-26T01:44:56.573Z,1.60
2023-03-26T01:47:24.930Z,1.50
2023-03-26T01:49:53.065Z,1.70
2023-03-26T01:52:25.363Z,1.50
2023-03-26T01:54:57.646Z,1.50
2023-03-26T01:58:08.841Z,1.60
2023-03-26T02:00:54.076Z,1.50
2023-03-26T02:03:30.488Z,1.90
2023-03-26T02:06:18.455Z,1.90
2023-03-26T02:08:52.845Z,1.60
2023-03-26T02:11:21.622Z,1.90
2023-03-26T02:13:52.392Z,1.70
2023-03-26T02:16:20.839Z,2.10
2023-03-26T02:18:51.504Z,1.90
2023-03-26T02:21:21.943Z,1.90
2023-03-26T02:23:57.790Z,2.10
2023-03-26T02:26:26.261Z,2.10
2023-03-26T02:29:02.241Z,2.00
2023-03-26T02:31:30.512Z,1.80
2023-03-26T02:33:58.565Z,2.00
2023-03-26T02:36:28.359Z,1.80
2023-03-26T02:39:00.398Z,1.60
2023-03-26T02:41:29.942Z,1.90
2023-03-26T02:44:05.816Z,2.10
2023-03-26T02:46:52.089Z,3.30
2023-03-26T02:49:38.944Z,2.00
2023-03-26T02:52:07.084Z,2.50
2023-03-26T02:54:37.448Z,2.50
2023-03-26T02:57:25.575Z,2.80
2023-03-26T03:00:17.503Z,2.40
2023-03-26T03:02:49.556Z,2.40
2023-03-26T03:05:33.632Z,2.60
2023-03-26T03:08:28.605Z,2.40
2023-03-26T03:11:24.638Z,2.60
2023-03-26T03:13:54.038Z,2.50
2023-03-26T03:18:58.753Z,2.70
2023-03-26T03:21:38.412Z,2.10
2023-03-26T03:24:07.422Z,2.50
2023-03-26T03:26:42.551Z,2.30
2023-03-26T03:29:46.641Z,2.60
2023-03-26T03:32:43.641Z,2.40
2023-03-26T03:35:12.127Z,2.60
2023-03-26T03:37:40.693Z,2.20
2023-03-26T03:40:13.367Z,2.60
2023-03-26T03:42:41.635Z,2.70
2023-03-26T03:45:10.579Z,2.30
2023-03-26T03:47:47.771Z,2.70
2023-03-26T03:50:17.983Z,2.10
2023-03-26T03:53:01.188Z,2.30
2023-03-26T03:55:30.067Z,2.30
2023-03-26T03:58:00.387Z,2.80
2023-03-26T04:00:30.727Z,2.10
2023-03-26T04:03:07.851Z,2.80
2023-03-26T04:05:36.513Z,2.10
2023-03-26T04:08:04.694Z,2.30
2023-03-26T04:10:45.965Z,2.10
2023-03-26T04:13:34.230Z,2.00
2023-03-26T04:16:34.504Z,2.30
2023-03-26T04:19:04.022Z,2.10
2023-03-26T04:21:32.627Z,2.30
2023-03-26T04:24:01.774Z,2.40
2023-03-26T04:26:50.120Z,2.70
2023-03-26T04:29:24.122Z,2.80
2023-03-26T04:32:06.582Z,2.60
2023-03-26T04:34:36.392Z,2.50
2023-03-26T04:37:27.864Z,2.70
2023-03-26T04:40:10.425Z,2.30
2023-03-26T04:42:45.964Z,1.90
2023-03-26T04:45:22.826Z,2.10
2023-03-26T04:47:58.303Z,2.00
2023-03-26T04:50:27.380Z,2.10
2023-03-26T04:52:57.467Z,2.20
2023-03-26T04:56:03.542Z,2.00
2023-03-26T04:59:02.705Z,2.20
2023-03-26T05:01:37.876Z,2.50
2023-03-26T05:04:06.714Z,2.50
2023-03-26T05:06:34.918Z,2.20
2023-03-26T05:09:08.577Z,2.40
2023-03-26T05:11:55.702Z,2.30
2023-03-26T05:14:24.638Z,2.60
2023-03-26T05:16:53.408Z,2.20
2023-03-26T05:19:22.285Z,2.30
2023-03-26T05:21:50.429Z,2.60
2023-03-26T05:24:19.751Z,2.20
2023-03-26T05:26:48.184Z,2.20
2023-03-26T05:29:17.828Z,2.30
2023-03-26T05:31:50.441Z,2.40
2023-03-26T05:34:20.663Z,2.30
2023-03-26T05:36:49.969Z,2.30
2023-03-26T05:39:41.344Z,2.20
2023-03-26T05:42:28.549Z,2.20
2023-03-26T05:45:11.298Z,2.50
2023-03-26T05:47:39.946Z,2.00
2023-03-26T05:50:09.164Z,1.80
2023-03-26T05:52:39.988Z,2.30
2023-03-26T05:55:28.125Z,2.40
2023-03-26T05:58:14.702Z,1.60
2023-03-26T06:01:08.588Z,1.80
2023-03-26T06:04:02.069Z,2.10
2023-03-26T06:06:33.329Z,2.10
2023-03-26T06:09:03.064Z,1.70
2023-03-26T06:11:32.377Z,1.80
2023-03-26T06:14:01.980Z,1.80
2023-03-26T06:16:30.800Z,1.60
2023-03-26T06:19:19.701Z,1.90
2023-03-26T06:21:51.159Z,1.80
2023-03-26T06:24:23.488Z,1.40
2023-03-26T06:27:04.511Z,1.60
2023-03-26T06:29:50.818Z,1.90
2023-03-26T06:32:37.365Z,1.90
2023-03-26T06:35:11.927Z,1.50
2023-03-26T06:37:39.920Z,1.70
2023-03-26T06:40:10.365Z,1.60
2023-03-26T06:43:09.508Z,1.30
2023-03-26T06:45:52.392Z,1.50
2023-03-26T06:48:42.151Z,1.40
2023-03-26T06:51:41.619Z,1.60
2023-03-26T06:54:10.167Z,1.30
2023-03-26T06:57:04.813Z,1.20
2023-03-26T06:59:48.010Z,1.20
2023-03-26T07:02:36.103Z,1.40
2023-03-26T07:05:22.699Z,1.30
2023-03-26T07:08:09.564Z,1.40
2023-03-26T07:10:37.692Z,0.90
2023-03-26T07:13:25.912Z,1.20
2023-03-26T07:16:16.999Z,1.20
2023-03-26T07:19:16.125Z,1.20
2023-03-26T07:21:44.465Z,0.90
2023-03-26T07:24:36.345Z,1.20
2023-03-26T07:27:54.966Z,1.10
2023-03-26T07:30:56.225Z,1.00
2023-03-26T07:33:49.588Z,1.10
2023-03-26T07:36:35.030Z,1.30
2023-03-26T07:40:00.976Z,3.80
2023-03-26T07:43:03.382Z,4.20
2023-03-26T07:46:13.481Z,1.80
2023-03-26T07:49:01.959Z,1.90
2023-03-26T07:51:53.466Z,1.90
2023-03-26T07:54:41.875Z,2.50
2023-03-26T07:57:45.650Z,2.20
2023-03-26T08:00:46.728Z,1.70
2023-03-26T08:03:30.586Z,1.10
2023-03-26T08:06:35.009Z,1.40
2023-03-26T08:09:23.606Z,1.30
2023-03-26T08:12:39.007Z,0.70
2023-03-26T08:15:19.246Z,1.10
2023-03-26T08:17:54.373Z,0.90
2023-03-26T08:20:38.326Z,1.20
2023-03-26T08:23:27.820Z,0.90
2023-03-26T08:26:24.212Z,1.20
2023-03-26T08:29:04.060Z,1.60
2023-03-26T08:31:35.194Z,2.60
2023-03-26T08:34:03.454Z,1.90
2023-03-26T08:36:31.815Z,1.60
2023-03-26T08:38:59.846Z,1.50
2023-03-26T08:41:46.340Z,1.00
2023-03-26T08:44:34.288Z,1.00
2023-03-26T08:47:14.132Z,0.70
2023-03-26T08:49:51.580Z,0.90
2023-03-26T08:52:51.494Z,0.90
2023-03-26T08:55:40.890Z,0.80
2023-03-26T08:58:37.062Z,0.70
2023-03-26T09:01:11.462Z,0.90
2023-03-26T09:03:53.147Z,1.00
2023-03-26T09:06:27.427Z,1.10
2023-03-26T09:09:01.429Z,1.00
2023-03-26T09:11:57.524Z,0.90
2023-03-26T09:14:53.554Z,0.60
2023-03-26T09:17:52.161Z,0.60
2023-03-26T09:20:45.552Z,0.50
2023-03-26T09:23:16.692Z,0.60
2023-03-26T09:25:56.817Z,1.00
2023-03-26T09:29:02.412Z,0.60
2023-03-26T09:32:00.574Z,0.90
2023-03-26T09:34:36.411Z,0.70
2023-03-26T09:37:22.485Z,0.50
2023-03-26T09:40:17.458Z,0.60
2023-03-26T09:43:04.102Z,1.20
2023-03-26T09:45:44.037Z,1.10
2023-03-26T09:48:36.730Z,0.70
2023-03-26T09:51:04.652Z,0.80
2023-03-26T09:53:52.331Z,0.70
2023-03-26T09:57:09.333Z,0.60
2023-03-26T09:59:56.432Z,1.20
2023-03-26T10:02:46.918Z,0.90
2023-03-26T10:06:00.172Z,1.00
2023-03-26T10:09:01.824Z,1.00
2023-03-26T10:11:44.319Z,1.40
2023-03-26T10:14:31.021Z,0.60
2023-03-26T10:17:06.704Z,1.00
2023-03-26T10:19:42.130Z,1.00
2023-03-26T10:22:30.802Z,0.90
2023-03-26T10:25:05.107Z,1.70
2023-03-26T10:27:48.603Z,1.00
2023-03-26T10:30:29.546Z,1.10
2023-03-26T10:33:43.235Z,1.10
2023-03-26T10:36:17.996Z,0.90
2023-03-26T10:39:05.932Z,0.80
2023-03-26T10:41:49.840Z,0.90
2023-03-26T10:44:44.143Z,0.70
2023-03-26T10:47:48.648Z,0.90
2023-03-26T10:50:55.495Z,1.20
2023-03-26T10:53:57.331Z,1.00
2023-03-26T10:56:45.787Z,1.30
2023-03-26T10:59:16.240Z,1.00
2023-03-26T11:04:44.917Z,1.90
2023-03-26T11:07:59.739Z,0.70
2023-03-26T11:11:10.614Z,0.70
2023-03-26T11:13:59.287Z,0.60
2023-03-26T11:16:53.352Z,0.90
2023-03-26T11:19:57.180Z,0.80
2023-03-26T11:22:37.611Z,0.80
2023-03-26T11:25:38.108Z,0.80
2023-03-26T11:28:28.041Z,0.90
2023-03-26T11:31:08.505Z,0.80
2023-03-26T11:33:45.590Z,1.30
2023-03-26T11:36:25.293Z,1.10
2023-03-26T11:38:57.934Z,0.70
2023-03-26T11:41:33.730Z,1.20
2023-03-26T11:44:35.297Z,0.90
2023-03-26T11:47:10.566Z,1.20
2023-03-26T11:49:41.858Z,0.80
2023-03-26T11:52:12.277Z,0.90
2023-03-26T11:54:40.580Z,0.80
2023-03-26T11:57:19.399Z,1.20
2023-03-26T11:59:59.963Z,0.90
2023-03-26T12:02:35.038Z,0.70
2023-03-26T12:05:18.362Z,1.80
2023-03-26T12:07:52.450Z,0.90
2023-03-26T12:10:29.196Z,1.00
2023-03-26T12:13:00.515Z,0.70
2023-03-26T12:15:31.902Z,1.30
2023-03-26T12:18:28.093Z,1.20
2023-03-26T12:21:23.534Z,0.80
2023-03-26T12:23:58.350Z,0.60
2023-03-26T12:29:10.890Z,0.50
2023-03-26T12:31:55.199Z,0.70
2023-03-26T12:34:43.675Z,0.70
2023-03-26T12:37:35.147Z,0.70
2023-03-26T12:40:22.352Z,0.80
2023-03-26T12:44:48.007Z,0.60
2023-03-26T12:47:55.512Z,0.60
2023-03-26T12:48:48.757Z,0.60
2023-03-26T12:51:41.551Z,1.10
2023-03-26T12:54:29.552Z,0.50
2023-03-26T12:57:20.789Z,0.90
2023-03-26T13:00:12.519Z,1.60
2023-03-26T13:03:10.926Z,0.80
2023-03-26T13:06:08.492Z,0.80
2023-03-26T13:08:59.266Z,0.80
2023-03-26T13:11:36.212Z,0.70
2023-03-26T13:14:21.523Z,0.40
2023-03-26T13:19:44.128Z,0.60
2023-03-26T13:22:48.139Z,0.70
2023-03-26T13:25:34.422Z,0.60
2023-03-26T13:28:24.827Z,0.50
2023-03-26T13:31:04.277Z,1.10
2023-03-26T13:34:07.395Z,0.70
2023-03-26T13:37:06.615Z,0.60
2023-03-26T13:40:05.703Z,0.70
2023-03-26T13:42:46.112Z,0.50
2023-03-26T13:45:34.763Z,0.80
2023-03-26T13:48:04.747Z,0.60
2023-03-26T13:50:39.529Z,0.90
2023-03-26T13:53:13.906Z,1.30
2023-03-26T13:55:47.868Z,0.80
2023-03-26T13:58:39.053Z,0.50
2023-03-26T14:01:16.833Z,0.70
2023-03-26T14:04:00.397Z,2.50
2023-03-26T14:06:48.447Z,0.70
2023-03-26T14:09:20.780Z,1.30
2023-03-26T14:11:56.853Z,0.50
2023-03-26T14:14:44.363Z,0.40
2023-03-26T14:17:21.471Z,0.80
2023-03-26T14:20:27.335Z,0.80
2023-03-26T14:23:20.714Z,0.80
2023-03-26T14:26:01.288Z,0.60
2023-03-26T14:28:38.450Z,0.70
2023-03-26T14:31:34.945Z,0.80
2023-03-26T14:34:34.369Z,1.20
2023-03-26T14:37:28.042Z,0.90
2023-03-26T14:40:28.874Z,0.70
2023-03-26T14:43:09.853Z,0.90
2023-03-26T14:45:44.522Z,0.80
2023-03-26T14:51:04.986Z,1.30
2023-03-26T14:53:38.025Z,1.40
2023-03-26T14:56:28.009Z,1.00
2023-03-26T14:59:08.238Z,1.00
2023-03-26T15:01:40.287Z,0.60
2023-03-26T15:04:51.439Z,0.80
2023-03-26T15:07:38.284Z,0.70
2023-03-26T15:10:38.301Z,0.60
2023-03-26T15:13:24.530Z,0.90
2023-03-26T15:16:08.272Z,1.30
2023-03-26T15:19:14.224Z,1.00
2023-03-26T15:22:18.338Z,0.90
2023-03-26T15:24:58.481Z,1.00
2023-03-26T15:27:50.739Z,0.80
2023-03-26T15:30:32.897Z,0.70
2023-03-26T15:33:26.696Z,1.10
2023-03-26T15:36:10.458Z,0.90
2023-03-26T15:38:38.580Z,1.30
2023-03-26T15:41:34.702Z,0.70
2023-03-26T15:44:24.232Z,0.80
2023-03-26T15:47:32.046Z,1.40
2023-03-26T15:50:13.939Z,1.60
2023-03-26T15:53:04.144Z,1.80
2023-03-26T15:55:41.417Z,2.70
2023-03-26T15:58:30.909Z,0.90
2023-03-26T16:01:21.758Z,1.90
2023-03-26T16:04:28.637Z,0.80
2023-03-26T16:07:04.476Z,1.50
2023-03-26T16:09:47.641Z,1.00
2023-03-26T16:12:15.899Z,0.80
2023-03-26T16:14:47.057Z,1.20
2023-03-26T16:17:23.456Z,1.10
2023-03-26T16:20:20.274Z,0.90
2023-03-26T16:23:04.483Z,1.30
2023-03-26T16:25:34.066Z,1.20
2023-03-26T16:28:31.190Z,1.60
2023-03-26T16:31:10.709Z,2.70
2023-03-26T16:34:21.667Z,1.50
2023-03-26T16:36:51.809Z,1.60
2023-03-26T16:39:19.932Z,1.30
2023-03-26T16:41:50.388Z,1.40
2023-03-26T16:44:50.488Z,2.30
2023-03-26T16:47:43.173Z,2.60
2023-03-26T16:50:20.407Z,2.70
2023-03-26T16:53:30.442Z,3.10
2023-03-26T16:56:28.089Z,3.00
2023-03-26T16:59:03.181Z,3.30
2023-03-26T17:04:28.513Z,4.00
2023-03-26T17:07:08.754Z,3.00
2023-03-26T17:10:05.943Z,4.50
2023-03-26T17:12:59.257Z,3.10
2023-03-26T17:15:48.104Z,3.40
2023-03-26T17:18:22.069Z,3.00
2023-03-26T17:21:13.832Z,4.30
2023-03-26T17:24:06.502Z,3.20
2023-03-26T17:27:01.162Z,2.70
2023-03-26T17:29:47.948Z,3.00
2023-03-26T17:32:21.480Z,2.70
2023-03-26T17:35:02.422Z,3.00
2023-03-26T17:37:41.006Z,2.70
2023-03-26T17:40:43.702Z,3.00
2023-03-26T17:43:32.852Z,3.10
2023-03-26T17:46:04.213Z,4.30
2023-03-26T17:48:40.882Z,3.60
2023-03-26T17:51:40.423Z,3.20
2023-03-26T17:54:41.470Z,3.50
2023-03-26T17:57:32.993Z,3.40
2023-03-26T18:00:02.746Z,3.70
2023-03-26T18:02:46.064Z,6.00
2023-03-26T18:05:17.333Z,6.80
2023-03-26T18:08:26.492Z,7.20
2023-03-26T18:11:15.086Z,7.30
2023-03-26T18:14:13.124Z,6.20
2023-03-26T18:16:49.467Z,5.90
2023-03-26T18:19:19.946Z,5.90
2023-03-26T18:21:54.205Z,6.40
2023-03-26T18:24:32.863Z,7.50
2023-03-26T18:27:22.880Z,5.30
2023-03-26T18:29:57.422Z,6.50
2023-03-26T18:32:33.706Z,7.60
2023-03-26T18:35:21.666Z,7.90
2023-03-26T18:37:53.441Z,7.00
2023-03-26T18:40:23.611Z,9.20
2023-03-26T18:42:55.965Z,9.50
2023-03-26T18:45:37.237Z,7.60
2023-03-26T18:48:11.485Z,8.80
2023-03-26T18:50:42.216Z,7.80
2023-03-26T18:53:18.336Z,5.70
2023-03-26T18:55:46.880Z,4.80
2023-03-26T18:58:39.255Z,4.70
2023-03-26T19:01:23.788Z,4.00
2023-03-26T19:03:54.658Z,4.60
2023-03-26T19:06:23.659Z,4.40
2023-03-26T19:08:52.808Z,4.40
2023-03-26T19:11:22.321Z,4.20
2023-03-26T19:13:59.990Z,4.50
2023-03-26T19:16:33.911Z,5.10
2023-03-26T19:19:07.660Z,5.20
2023-03-26T19:21:38.045Z,5.20
2023-03-26T19:24:09.936Z,3.40
2023-03-26T19:26:38.288Z,3.80
2023-03-26T19:29:24.767Z,3.90
2023-03-26T19:31:54.538Z,4.00
2023-03-26T19:34:33.528Z,4.60
2023-03-26T19:37:15.914Z,4.50
2023-03-26T19:39:47.628Z,4.80
2023-03-26T19:42:24.236Z,5.10
2023-03-26T19:44:52.938Z,5.10
2023-03-26T19:47:35.306Z,4.90
2023-03-26T19:50:29.731Z,4.80
2023-03-26T19:53:24.149Z,4.40
2023-03-26T19:55:55.786Z,4.50
2023-03-26T19:58:26.056Z,4.60
2023-03-26T20:00:56.502Z,4.30
2023-03-26T20:03:30.100Z,4.20
2023-03-26T20:05:58.498Z,4.60
2023-03-26T20:08:29.369Z,4.10
2023-03-26T20:10:58.506Z,4.80
2023-03-26T20:13:26.901Z,5.20
2023-03-26T20:16:07.502Z,6.00
2023-03-26T20:18:35.668Z,6.60
2023-03-26T20:21:11.217Z,7.30
2023-03-26T20:23:41.121Z,6.00
2023-03-26T20:26:16.468Z,6.10
2023-03-26T20:28:48.088Z,7.20
2023-03-26T20:31:25.462Z,6.40
2023-03-26T20:34:02.650Z,6.80
2023-03-26T20:36:35.637Z,6.70
2023-03-26T20:39:07.825Z,8.30
2023-03-26T20:41:43.608Z,7.90
2023-03-26T20:44:17.324Z,8.30
2023-03-26T20:46:46.900Z,8.60
2023-03-26T20:49:15.427Z,8.80
2023-03-26T20:51:46.189Z,10.00
2023-03-26T20:54:17.726Z,9.80
2023-03-26T20:56:47.748Z,10.10
2023-03-26T20:59:26.824Z,9.70
2023-03-26T21:01:57.825Z,10.70
2023-03-26T21:04:27.817Z,11.80
2023-03-26T21:07:07.233Z,11.60
2023-03-26T21:09:44.969Z,11.40
2023-03-26T21:12:21.533Z,11.50
2023-03-26T21:14:49.898Z,12.50
2023-03-26T21:17:20.958Z,11.30
2023-03-26T21:19:49.926Z,12.30
2023-03-26T21:22:35.876Z,12.40
2023-03-26T21:25:22.814Z,12.40
2023-03-26T21:28:06.169Z,13.30
2023-03-26T21:30:35.117Z,12.50
2023-03-26T21:33:05.544Z,13.40
2023-03-26T21:35:34.958Z,14.10
2023-03-26T21:38:06.719Z,11.20
2023-03-26T21:40:35.290Z,13.10
2023-03-26T21:43:04.301Z,12.00
2023-03-26T21:45:33.071Z,11.20
2023-03-26T21:48:01.360Z,10.50
2023-03-26T21:50:29.909Z,12.30
2023-03-26T21:52:59.702Z,10.80
2023-03-26T21:55:28.035Z,12.30
2023-03-26T21:58:32.826Z,10.60
2023-03-26T22:01:10.180Z,10.70
2023-03-26T22:03:49.726Z,11.30
2023-03-26T22:06:43.084Z,9.90
2023-03-26T22:09:12.924Z,12.20
2023-03-26T22:11:42.187Z,10.30
2023-03-26T22:14:13.612Z,10.10
2023-03-26T22:16:41.706Z,9.80
2023-03-26T22:19:10.917Z,10.60
2023-03-26T22:21:38.921Z,11.30
2023-03-26T22:24:07.631Z,10.30
2023-03-26T22:26:36.404Z,10.40
2023-03-26T22:29:05.583Z,10.80
2023-03-26T22:31:34.825Z,11.90
2023-03-26T22:34:02.937Z,11.20
2023-03-26T22:36:32.287Z,13.10
2023-03-26T22:39:00.434Z,12.40
2023-03-26T22:41:29.797Z,12.20
2023-03-26T22:44:09.366Z,12.10
2023-03-26T22:46:41.567Z,12.00
2023-03-26T22:49:09.662Z,11.80
2023-03-26T22:51:37.652Z,12.40
2023-03-26T22:54:06.591Z,11.90
2023-03-26T22:56:34.736Z,12.40
2023-03-26T22:59:03.853Z,10.80
2023-03-26T23:01:31.912Z,12.60
2023-03-26T23:03:59.878Z,13.30
2023-03-26T23:06:27.937Z,13.20
2023-03-26T23:08:57.104Z,12.20
2023-03-26T23:11:25.122Z,13.00
2023-03-26T23:13:53.128Z,13.60
2023-03-26T23:16:21.748Z,11.40
2023-03-26T23:18:49.929Z,12.40
2023-03-26T23:21:22.174Z,11.60
2023-03-26T23:23:52.290Z,11.50
2023-03-26T23:26:20.529Z,11.30
2023-03-26T23:28:48.794Z,10.60
2023-03-26T23:31:17.738Z,10.70
2023-03-26T23:33:48.790Z,11.50
2023-03-26T23:36:18.697Z,11.20
2023-03-26T23:38:49.083Z,9.80
2023-03-26T23:41:19.920Z,10.10
2023-03-26T23:43:55.618Z,9.60
2023-03-26T23:46:31.029Z,11.00
2023-03-26T23:49:02.452Z,11.00
2023-03-26T23:51:31.480Z,10.60
2023-03-26T23:54:00.747Z,11.50
2023-03-26T23:56:30.041Z,9.40
2023-03-26T23:58:59.341Z,11.30
